Time;durP1;ratioP1;P1;durP2;ratioP2;P2;SDS_P1;SDS_P2;PMS_P1;PMS_P2;Temp;Humidity;BMP_temperature;BMP_pressure;BME280_temperature;BME280_humidity;BME280_pressure;Samples;Min_cycle;Max_cycle;Signal;HPM_P1;HPM_P2
2024/03/10 00:00:45;;;;;;;62.60;5.53;;;;;;;;;;5030079;28;20467;-70
2024/03/10 00:03:15;;;;;;;60.70;6.63;;;;;;;;;;5027126;28;20456;-70
2024/03/10 00:05:43;;;;;;;59.87;5.60;;;;;;;;;;5012072;28;20937;-70
2024/03/10 00:08:10;;;;;;;58.70;5.70;;;;;;;;;;5030334;28;20473;-70
2024/03/10 00:10:40;;;;;;;58.57;5.10;;;;;;;;;;5022543;28;20449;-70
2024/03/10 00:13:08;;;;;;;60.37;6.13;;;;;;;;;;5022557;28;20457;-70
2024/03/10 00:15:37;;;;;;;62.13;6.10;;;;;;;;;;5008737;28;20488;-70
2024/03/10 00:18:05;;;;;;;60.03;5.50;;;;;;;;;;5021970;28;20469;-70
2024/03/10 00:20:34;;;;;;;62.77;5.93;;;;;;;;;;5017674;28;20491;-70
2024/03/10 00:23:01;;;;;;;60.20;5.23;;;;;;;;;;5018665;28;20446;-70
2024/03/10 00:25:28;;;;;;;59.83;5.80;;;;;;;;;;5016445;28;21040;-70
2024/03/10 00:27:55;;;;;;;59.77;6.23;;;;;;;;;;5023482;28;20472;-70
2024/03/10 00:30:23;;;;;;;60.30;6.10;;;;;;;;;;5025293;28;20445;-70
2024/03/10 00:32:50;;;;;;;60.70;6.27;;;;;;;;;;5027176;28;20458;-70
2024/03/10 00:35:18;;;;;;;60.57;6.37;;;;;;;;;;5022386;28;20449;-70
2024/03/10 00:37:46;;;;;;;61.00;6.50;;;;;;;;;;5021096;28;20484;-70
2024/03/10 00:40:14;;;;;;;59.30;6.07;;;;;;;;;;5019728;28;21019;-70
2024/03/10 00:42:42;;;;;;;60.00;5.93;;;;;;;;;;5022342;28;20499;-70
2024/03/10 00:45:09;;;;;;;60.53;6.47;;;;;;;;;;5010581;28;21012;-70
2024/03/10 00:47:37;;;;;;;61.93;6.10;;;;;;;;;;5014095;28;21006;-70
2024/03/10 00:50:05;;;;;;;60.37;5.63;;;;;;;;;;5013774;28;20441;-70
2024/03/10 00:52:33;;;;;;;61.17;6.40;;;;;;;;;;5014091;28;20453;-71
2024/03/10 00:55:02;;;;;;;58.97;5.53;;;;;;;;;;5017875;28;20516;-71
2024/03/10 00:57:29;;;;;;;59.40;6.00;;;;;;;;;;5024708;28;20478;-70
2024/03/10 00:59:56;;;;;;;58.37;4.87;;;;;;;;;;5027793;28;20489;-69
2024/03/10 01:02:24;;;;;;;60.10;5.23;;;;;;;;;;5024118;28;20458;-70
2024/03/10 01:04:51;;;;;;;60.60;5.57;;;;;;;;;;5019165;28;20463;-70
2024/03/10 01:07:18;;;;;;;60.97;5.97;;;;;;;;;;5021260;28;20472;-70
2024/03/10 01:09:45;;;;;;;59.20;6.33;;;;;;;;;;5020240;28;20798;-70
2024/03/10 01:12:13;;;;;;;59.10;5.43;;;;;;;;;;5021613;28;20445;-70
2024/03/10 01:14:40;;;;;;;59.80;5.97;;;;;;;;;;5006815;28;20453;-70
2024/03/10 01:17:08;;;;;;;59.57;5.53;;;;;;;;;;5020706;28;20491;-70
2024/03/10 01:19:35;;;;;;;63.90;6.40;;;;;;;;;;5013046;28;21025;-70
2024/03/10 01:22:02;;;;;;;59.77;5.90;;;;;;;;;;5021527;28;20457;-70
2024/03/10 01:24:29;;;;;;;58.90;5.37;;;;;;;;;;5025038;28;20583;-70
2024/03/10 01:26:58;;;;;;;59.80;5.40;;;;;;;;;;5024614;28;20480;-70
2024/03/10 01:29:27;;;;;;;60.20;5.87;;;;;;;;;;5022405;28;20445;-70
2024/03/10 01:31:55;;;;;;;60.37;6.57;;;;;;;;;;5027068;28;20488;-70
2024/03/10 01:34:22;;;;;;;58.67;5.20;;;;;;;;;;5025898;28;20477;-70
2024/03/10 01:36:49;;;;;;;58.77;5.13;;;;;;;;;;5024198;28;20472;-70
2024/03/10 01:39:17;;;;;;;58.50;5.30;;;;;;;;;;5032036;28;20456;-71
2024/03/10 01:41:45;;;;;;;60.47;5.90;;;;;;;;;;5025355;28;20450;-71
2024/03/10 01:44:12;;;;;;;61.00;6.60;;;;;;;;;;5017421;28;20946;-71
2024/03/10 01:46:40;;;;;;;59.77;5.63;;;;;;;;;;5016613;28;20825;-71
2024/03/10 01:49:08;;;;;;;58.30;5.07;;;;;;;;;;5017067;28;20460;-69
2024/03/10 01:51:36;;;;;;;61.20;5.50;;;;;;;;;;5012766;28;20443;-70
2024/03/10 01:54:03;;;;;;;59.90;5.60;;;;;;;;;;5012424;28;20477;-70
2024/03/10 01:56:31;;;;;;;59.43;5.80;;;;;;;;;;5022789;28;20947;-70
2024/03/10 01:58:58;;;;;;;60.07;5.50;;;;;;;;;;5017759;28;20455;-70
2024/03/10 02:01:25;;;;;;;59.57;5.70;;;;;;;;;;5020415;28;20495;-70
2024/03/10 02:03:54;;;;;;;59.10;5.30;;;;;;;;;;5012521;28;20458;-71
2024/03/10 02:06:21;;;;;;;61.87;6.53;;;;;;;;;;5012710;28;20488;-70
2024/03/10 02:08:48;;;;;;;62.50;5.33;;;;;;;;;;5023855;28;20939;-70
2024/03/10 02:11:15;;;;;;;59.60;5.30;;;;;;;;;;5015514;28;20444;-71
2024/03/10 02:13:42;;;;;;;59.90;5.80;;;;;;;;;;5023907;28;20449;-71
2024/03/10 02:16:10;;;;;;;59.33;4.70;;;;;;;;;;5022641;28;20456;-71
2024/03/10 02:18:37;;;;;;;58.00;4.80;;;;;;;;;;5020654;28;20449;-71
2024/03/10 02:21:08;;;;;;;58.90;5.80;;;;;;;;;;5027417;28;20481;-71
2024/03/10 02:23:40;;;;;;;59.77;5.33;;;;;;;;;;5031950;28;20445;-71
2024/03/10 02:26:09;;;;;;;60.37;5.40;;;;;;;;;;5015908;28;20460;-71
2024/03/10 02:28:46;;;;;;;60.60;5.40;;;;;;;;;;5019784;28;20532;-71
2024/03/10 02:47:39;;;;;;;61.70;6.07;;;;;;;;;;4980785;28;20485;-71
2024/03/10 02:50:06;;;;;;;58.70;5.13;;;;;;;;;;4989843;28;20446;-71
2024/03/10 02:52:34;;;;;;;60.17;5.23;;;;;;;;;;4979399;28;20537;-71
2024/03/10 02:55:02;;;;;;;58.37;4.60;;;;;;;;;;4977290;28;20452;-71
2024/03/10 02:57:31;;;;;;;58.40;4.53;;;;;;;;;;4976854;28;20573;-71
2024/03/10 02:59:58;;;;;;;59.67;5.17;;;;;;;;;;4978261;28;21054;-71
2024/03/10 03:02:25;;;;;;;59.30;5.40;;;;;;;;;;4977816;28;21017;-72
2024/03/10 03:04:52;;;;;;;59.10;6.03;;;;;;;;;;4969826;28;20462;-71
2024/03/10 03:07:19;;;;;;;60.63;5.93;;;;;;;;;;4978407;28;20478;-71
2024/03/10 03:09:47;;;;;;;60.20;5.80;;;;;;;;;;4978841;28;20459;-71
2024/03/10 03:12:14;;;;;;;57.73;4.20;;;;;;;;;;4983809;28;20987;-71
2024/03/10 03:14:43;;;;;;;59.13;5.23;;;;;;;;;;4977829;28;20462;-71
2024/03/10 03:17:10;;;;;;;58.17;4.87;;;;;;;;;;4969874;28;20562;-71
2024/03/10 03:19:38;;;;;;;58.77;4.80;;;;;;;;;;4980711;28;20464;-70
2024/03/10 03:22:06;;;;;;;59.50;6.00;;;;;;;;;;4974979;28;20498;-71
2024/03/10 03:24:33;;;;;;;60.13;4.50;;;;;;;;;;4991590;28;20460;-72
2024/03/10 03:27:02;;;;;;;59.70;4.90;;;;;;;;;;5017208;28;20468;-72
2024/03/10 03:29:29;;;;;;;59.30;5.03;;;;;;;;;;5022819;28;20483;-71
2024/03/10 03:31:58;;;;;;;58.90;4.70;;;;;;;;;;5022433;28;20930;-70
2024/03/10 03:34:25;;;;;;;58.90;4.60;;;;;;;;;;5013467;28;20479;-70
2024/03/10 03:36:52;;;;;;;59.17;4.90;;;;;;;;;;5015101;28;20479;-70
2024/03/10 03:39:19;;;;;;;58.70;4.80;;;;;;;;;;5020969;28;20452;-71
2024/03/10 03:41:46;;;;;;;59.00;4.50;;;;;;;;;;5023220;28;21016;-71
2024/03/10 03:44:13;;;;;;;58.20;4.97;;;;;;;;;;5030767;28;20477;-70
2024/03/10 03:46:40;;;;;;;59.27;5.17;;;;;;;;;;5024683;28;20471;-71
2024/03/10 03:49:09;;;;;;;58.17;4.43;;;;;;;;;;5022376;28;20458;-71
2024/03/10 03:51:36;;;;;;;60.90;4.40;;;;;;;;;;5023430;28;20444;-71
2024/03/10 03:54:05;;;;;;;59.07;4.90;;;;;;;;;;5015522;28;20450;-71
2024/03/10 03:56:32;;;;;;;58.27;4.13;;;;;;;;;;5014221;28;20491;-71
2024/03/10 03:59:01;;;;;;;60.40;5.07;;;;;;;;;;5020647;28;20502;-71
2024/03/10 04:01:28;;;;;;;58.13;4.40;;;;;;;;;;5016738;28;21008;-71
2024/03/10 04:03:55;;;;;;;59.37;4.73;;;;;;;;;;5015013;28;20459;-70
2024/03/10 04:06:24;;;;;;;59.27;5.20;;;;;;;;;;5014222;28;21180;-71
2024/03/10 04:08:53;;;;;;;59.47;5.10;;;;;;;;;;5019803;28;20519;-71
2024/03/10 04:11:21;;;;;;;60.40;5.50;;;;;;;;;;5022593;28;20511;-72
2024/03/10 04:13:50;;;;;;;58.87;4.50;;;;;;;;;;5014728;28;20464;-72
2024/03/10 04:16:17;;;;;;;57.37;4.50;;;;;;;;;;5013942;28;21209;-72
2024/03/10 04:18:44;;;;;;;59.00;4.80;;;;;;;;;;5022794;28;20456;-71
2024/03/10 04:21:12;;;;;;;59.13;5.20;;;;;;;;;;5014428;28;20488;-71
2024/03/10 04:23:41;;;;;;;62.17;5.23;;;;;;;;;;5014563;28;20458;-71
2024/03/10 04:26:09;;;;;;;57.80;4.17;;;;;;;;;;5013812;28;20472;-71
2024/03/10 04:28:36;;;;;;;58.07;4.30;;;;;;;;;;5022511;28;20454;-72
2024/03/10 04:31:03;;;;;;;58.37;4.27;;;;;;;;;;5022343;28;20451;-72
2024/03/10 04:33:30;;;;;;;58.67;4.80;;;;;;;;;;5032103;28;20741;-72
2024/03/10 04:35:57;;;;;;;59.13;4.47;;;;;;;;;;5027341;28;20850;-71
2024/03/10 04:38:24;;;;;;;60.07;4.93;;;;;;;;;;5014779;28;20456;-71
2024/03/10 04:40:53;;;;;;;58.23;4.30;;;;;;;;;;5021362;28;20485;-71
2024/03/10 04:43:20;;;;;;;58.90;4.43;;;;;;;;;;5022103;28;20966;-71
2024/03/10 04:45:47;;;;;;;60.10;5.50;;;;;;;;;;5012517;28;20522;-71
2024/03/10 04:48:15;;;;;;;59.60;5.00;;;;;;;;;;5029612;28;20470;-71
2024/03/10 04:50:43;;;;;;;58.20;4.90;;;;;;;;;;5026086;28;20808;-71
2024/03/10 04:53:10;;;;;;;57.67;4.30;;;;;;;;;;5018987;28;20453;-71
2024/03/10 04:55:37;;;;;;;58.33;4.00;;;;;;;;;;5021456;28;20459;-71
2024/03/10 04:58:06;;;;;;;57.50;4.20;;;;;;;;;;5021832;28;20466;-71
2024/03/10 05:00:33;;;;;;;57.27;4.03;;;;;;;;;;5023382;28;20504;-71
2024/03/10 05:03:03;;;;;;;57.83;4.30;;;;;;;;;;5025469;28;20452;-70
2024/03/10 05:05:30;;;;;;;58.57;4.80;;;;;;;;;;5030923;28;20939;-71
2024/03/10 05:07:57;;;;;;;57.53;4.00;;;;;;;;;;5013305;28;20485;-71
2024/03/10 05:10:24;;;;;;;61.63;4.80;;;;;;;;;;5021448;28;20452;-71
2024/03/10 05:12:52;;;;;;;58.10;4.20;;;;;;;;;;5021710;28;20458;-71
2024/03/10 05:15:20;;;;;;;58.87;4.57;;;;;;;;;;5020465;28;20475;-71
2024/03/10 05:17:47;;;;;;;57.70;3.60;;;;;;;;;;5021707;28;20476;-71
2024/03/10 05:20:17;;;;;;;57.60;3.93;;;;;;;;;;5019096;28;20458;-71
2024/03/10 05:22:44;;;;;;;60.03;4.30;;;;;;;;;;5024137;28;20573;-71
2024/03/10 05:25:12;;;;;;;58.20;4.90;;;;;;;;;;5024720;28;20509;-71
2024/03/10 05:27:41;;;;;;;58.37;4.40;;;;;;;;;;5015157;28;20651;-71
2024/03/10 05:30:08;;;;;;;58.03;4.43;;;;;;;;;;5018699;28;20457;-71
2024/03/10 05:32:37;;;;;;;58.00;4.77;;;;;;;;;;5021343;28;20479;-71
2024/03/10 05:35:05;;;;;;;56.83;3.80;;;;;;;;;;5018664;28;20968;-71
2024/03/10 05:37:32;;;;;;;58.20;4.90;;;;;;;;;;5016531;28;20492;-71
2024/03/10 05:39:59;;;;;;;58.27;4.10;;;;;;;;;;5022175;28;20447;-71
2024/03/10 05:42:26;;;;;;;57.20;3.90;;;;;;;;;;5015967;28;20585;-71
2024/03/10 05:44:53;;;;;;;63.90;4.10;;;;;;;;;;5012969;28;20448;-71
2024/03/10 05:47:21;;;;;;;58.10;4.37;;;;;;;;;;5020002;28;20998;-71
2024/03/10 05:49:49;;;;;;;59.23;4.47;;;;;;;;;;5012845;28;20792;-71
2024/03/10 05:52:17;;;;;;;58.30;4.10;;;;;;;;;;5019700;28;20447;-71
2024/03/10 05:54:45;;;;;;;58.67;3.80;;;;;;;;;;5021056;28;20510;-71
2024/03/10 05:57:12;;;;;;;56.70;3.50;;;;;;;;;;5012250;28;20530;-71
2024/03/10 05:59:39;;;;;;;57.13;4.10;;;;;;;;;;5022781;28;20480;-71
2024/03/10 06:02:07;;;;;;;57.57;4.27;;;;;;;;;;5021976;28;20491;-71
2024/03/10 06:04:34;;;;;;;60.80;4.97;;;;;;;;;;5013853;28;20483;-71
2024/03/10 06:07:03;;;;;;;59.20;5.10;;;;;;;;;;5017377;28;20480;-71
2024/03/10 06:09:34;;;;;;;58.80;5.17;;;;;;;;;;5015363;28;20656;-71
2024/03/10 06:12:01;;;;;;;57.70;4.07;;;;;;;;;;5012575;28;20455;-71
2024/03/10 06:14:29;;;;;;;58.97;4.50;;;;;;;;;;5012484;28;20486;-72
2024/03/10 06:16:57;;;;;;;58.57;4.87;;;;;;;;;;5020335;28;20470;-71
2024/03/10 06:27:42;;;;;;;59.80;5.50;;;;;;;;;;5020051;28;20460;-71
2024/03/10 06:30:10;;;;;;;59.37;4.70;;;;;;;;;;5012325;28;20506;-71
2024/03/10 06:32:37;;;;;;;57.90;3.90;;;;;;;;;;5012210;28;20851;-71
2024/03/10 06:35:06;;;;;;;58.13;4.10;;;;;;;;;;5012050;28;20543;-71
2024/03/10 06:37:34;;;;;;;57.00;3.90;;;;;;;;;;5011716;28;20484;-71
2024/03/10 06:40:03;;;;;;;59.30;5.10;;;;;;;;;;5011946;28;20455;-71
2024/03/10 06:42:30;;;;;;;58.87;4.60;;;;;;;;;;5012056;28;20504;-71
2024/03/10 06:44:58;;;;;;;58.13;4.53;;;;;;;;;;5012113;28;20456;-71
2024/03/10 06:47:26;;;;;;;57.07;4.23;;;;;;;;;;5011752;28;20512;-71
2024/03/10 06:49:53;;;;;;;58.00;4.67;;;;;;;;;;5011943;28;20492;-71
2024/03/10 06:52:20;;;;;;;58.20;4.53;;;;;;;;;;5011775;28;20449;-71
2024/03/10 06:54:48;;;;;;;57.53;4.30;;;;;;;;;;5011594;28;20476;-71
2024/03/10 06:57:16;;;;;;;57.30;3.90;;;;;;;;;;5011687;28;20494;-71
2024/03/10 06:59:43;;;;;;;58.80;4.40;;;;;;;;;;5011842;28;20455;-71
2024/03/10 07:02:11;;;;;;;58.50;5.00;;;;;;;;;;5011742;28;20496;-71
2024/03/10 07:04:40;;;;;;;57.57;4.30;;;;;;;;;;5011764;28;20543;-71
2024/03/10 07:07:08;;;;;;;58.27;4.70;;;;;;;;;;5011404;28;20479;-71
2024/03/10 07:09:36;;;;;;;59.67;4.77;;;;;;;;;;5011787;28;20518;-71
2024/03/10 07:12:06;;;;;;;58.20;3.97;;;;;;;;;;5012202;28;20441;-71
2024/03/10 07:14:33;;;;;;;57.70;4.67;;;;;;;;;;5011935;28;20492;-71
2024/03/10 07:17:01;;;;;;;58.10;4.90;;;;;;;;;;5012022;28;20480;-72
2024/03/10 07:19:28;;;;;;;59.73;5.10;;;;;;;;;;5011987;28;20459;-71
2024/03/10 07:21:55;;;;;;;58.60;4.27;;;;;;;;;;5011400;28;21028;-71
2024/03/10 07:24:22;;;;;;;57.87;4.20;;;;;;;;;;5007811;28;20459;-71
2024/03/10 07:26:50;;;;;;;58.33;4.53;;;;;;;;;;5014045;28;20475;-71
2024/03/10 07:29:18;;;;;;;58.00;4.10;;;;;;;;;;5015373;28;20467;-71
2024/03/10 07:31:45;;;;;;;58.03;4.53;;;;;;;;;;5013980;28;20527;-71
2024/03/10 07:34:13;;;;;;;59.37;4.43;;;;;;;;;;5022946;28;20447;-71
2024/03/10 07:36:40;;;;;;;57.73;4.30;;;;;;;;;;5013136;28;20479;-71
2024/03/10 07:39:10;;;;;;;57.27;3.90;;;;;;;;;;5016273;28;20459;-71
2024/03/10 07:41:37;;;;;;;62.20;4.50;;;;;;;;;;5014642;28;20488;-70
2024/03/10 07:44:04;;;;;;;57.50;4.23;;;;;;;;;;5022708;28;20454;-71
2024/03/10 07:46:33;;;;;;;58.90;4.93;;;;;;;;;;5014105;28;20478;-71
2024/03/10 07:49:02;;;;;;;58.33;4.97;;;;;;;;;;5014978;28;20463;-71
2024/03/10 07:51:30;;;;;;;58.77;4.97;;;;;;;;;;5014695;28;20453;-71
2024/03/10 07:53:58;;;;;;;62.33;5.10;;;;;;;;;;5019379;28;20456;-71
2024/03/10 07:56:26;;;;;;;58.17;4.47;;;;;;;;;;5011040;28;20464;-70
2024/03/10 07:58:54;;;;;;;58.90;5.10;;;;;;;;;;5020892;28;20453;-70
2024/03/10 08:01:21;;;;;;;61.63;6.80;;;;;;;;;;5018365;28;20869;-70
2024/03/10 08:03:50;;;;;;;83.77;16.10;;;;;;;;;;5013449;28;20552;-69
2024/03/10 08:06:17;;;;;;;64.20;7.10;;;;;;;;;;5022657;28;20511;-71
2024/03/10 08:08:44;;;;;;;63.70;7.13;;;;;;;;;;5030796;28;20530;-70
2024/03/10 08:11:11;;;;;;;65.97;7.10;;;;;;;;;;5030861;28;20532;-70
2024/03/10 08:13:40;;;;;;;59.37;5.27;;;;;;;;;;5030708;28;20452;-69
2024/03/10 08:16:07;;;;;;;58.67;4.60;;;;;;;;;;5030424;28;20964;-70
2024/03/10 08:18:34;;;;;;;57.80;4.03;;;;;;;;;;5030823;28;20529;-71
2024/03/10 08:21:03;;;;;;;57.77;4.00;;;;;;;;;;5031096;28;20444;-71
2024/03/10 08:23:31;;;;;;;56.80;3.53;;;;;;;;;;5030835;28;20496;-70
2024/03/10 08:26:00;;;;;;;56.43;3.20;;;;;;;;;;5031277;28;20448;-70
2024/03/10 08:28:27;;;;;;;58.73;3.90;;;;;;;;;;5034172;28;20453;-70
2024/03/10 08:30:54;;;;;;;57.23;3.70;;;;;;;;;;5034134;28;20531;-70
2024/03/10 08:33:22;;;;;;;57.80;3.50;;;;;;;;;;5034233;28;20452;-70
2024/03/10 08:35:49;;;;;;;57.17;3.30;;;;;;;;;;5033949;28;20448;-71
2024/03/10 08:38:18;;;;;;;58.17;3.73;;;;;;;;;;5033958;28;20543;-70
2024/03/10 08:40:45;;;;;;;57.07;3.73;;;;;;;;;;5033822;28;20442;-70
2024/03/10 08:43:13;;;;;;;57.60;3.90;;;;;;;;;;5033825;28;20568;-70
2024/03/10 08:45:40;;;;;;;59.03;3.57;;;;;;;;;;5033917;28;20833;-71
2024/03/10 08:48:09;;;;;;;57.13;4.13;;;;;;;;;;5033995;28;20477;-70
2024/03/10 08:50:36;;;;;;;57.20;3.80;;;;;;;;;;5033700;28;20465;-70
2024/03/10 08:53:04;;;;;;;58.97;4.80;;;;;;;;;;5033830;28;20452;-70
2024/03/10 08:55:33;;;;;;;58.97;4.30;;;;;;;;;;5033468;28;20914;-70
2024/03/10 08:58:00;;;;;;;58.40;3.93;;;;;;;;;;5033479;28;20978;-71
2024/03/10 09:00:28;;;;;;;57.70;3.83;;;;;;;;;;5033634;28;20449;-71
2024/03/10 09:02:55;;;;;;;57.63;3.93;;;;;;;;;;5033479;28;20493;-71
2024/03/10 09:05:23;;;;;;;57.00;3.67;;;;;;;;;;5033572;28;20446;-71
2024/03/10 09:07:50;;;;;;;58.03;4.43;;;;;;;;;;5033395;28;20470;-71
2024/03/10 09:10:18;;;;;;;57.57;3.90;;;;;;;;;;5033473;28;20450;-71
2024/03/10 09:12:46;;;;;;;58.50;4.40;;;;;;;;;;5033269;28;20448;-70
2024/03/10 09:15:15;;;;;;;57.20;3.90;;;;;;;;;;5033447;28;20452;-71
2024/03/10 09:17:42;;;;;;;57.23;3.50;;;;;;;;;;5033091;28;20474;-72
2024/03/10 09:20:11;;;;;;;57.10;3.67;;;;;;;;;;5033149;28;20922;-72
2024/03/10 09:22:40;;;;;;;58.67;3.80;;;;;;;;;;5032969;28;20552;-72
2024/03/10 09:25:12;;;;;;;57.97;3.97;;;;;;;;;;5033112;28;21094;-72
2024/03/10 09:27:40;;;;;;;57.17;3.77;;;;;;;;;;5033001;28;20500;-72
2024/03/10 09:30:13;;;;;;;57.37;3.80;;;;;;;;;;5033289;28;20462;-72
2024/03/10 09:32:42;;;;;;;57.87;4.10;;;;;;;;;;5032997;28;20481;-72
2024/03/10 09:35:10;;;;;;;57.07;3.97;;;;;;;;;;5032934;28;20453;-70
2024/03/10 09:37:39;;;;;;;58.17;3.90;;;;;;;;;;5032458;28;20478;-71
2024/03/10 09:40:07;;;;;;;57.17;3.67;;;;;;;;;;5033143;28;20450;-70
2024/03/10 09:42:35;;;;;;;57.43;3.60;;;;;;;;;;5033242;28;20791;-71
2024/03/10 09:45:05;;;;;;;57.03;3.97;;;;;;;;;;5032693;28;20446;-71
2024/03/10 09:47:34;;;;;;;58.30;3.40;;;;;;;;;;5032381;28;20476;-71
2024/03/10 09:50:05;;;;;;;56.60;3.23;;;;;;;;;;5032958;28;20446;-71
2024/03/10 09:52:33;;;;;;;56.17;3.10;;;;;;;;;;5032916;28;20452;-71
2024/03/10 09:55:00;;;;;;;56.77;3.00;;;;;;;;;;5032584;28;20448;-71
2024/03/10 09:57:28;;;;;;;56.50;2.93;;;;;;;;;;5032400;28;20470;-71
2024/03/10 09:59:55;;;;;;;58.30;3.43;;;;;;;;;;5032383;28;20450;-71
2024/03/10 10:02:26;;;;;;;56.87;3.47;;;;;;;;;;5032244;28;21021;-71
2024/03/10 10:04:56;;;;;;;58.30;3.57;;;;;;;;;;5032460;28;20456;-71
2024/03/10 10:07:26;;;;;;;57.70;3.77;;;;;;;;;;5032388;28;20845;-71
2024/03/10 10:09:56;;;;;;;59.17;3.70;;;;;;;;;;5032055;28;21002;-71
2024/03/10 10:12:23;;;;;;;57.17;3.80;;;;;;;;;;5032220;28;20922;-71
2024/03/10 10:14:53;;;;;;;57.57;4.10;;;;;;;;;;5031914;28;20842;-72
2024/03/10 10:17:22;;;;;;;57.17;3.70;;;;;;;;;;5032176;28;20480;-72
2024/03/10 10:19:50;;;;;;;56.97;3.70;;;;;;;;;;5031703;28;20472;-70
2024/03/10 10:22:20;;;;;;;57.23;3.73;;;;;;;;;;5031989;28;21016;-70
2024/03/10 10:25:02;;;;;;;58.10;3.80;;;;;;;;;;5031943;28;20770;-70
2024/03/10 10:27:29;;;;;;;58.27;4.43;;;;;;;;;;5031923;28;20483;-71
2024/03/10 10:29:56;;;;;;;57.50;3.97;;;;;;;;;;5031839;28;20814;-70
2024/03/10 10:32:24;;;;;;;56.37;3.23;;;;;;;;;;5031919;28;20442;-70
2024/03/10 10:34:53;;;;;;;57.17;3.50;;;;;;;;;;5031781;28;20457;-70
2024/03/10 10:37:21;;;;;;;56.90;3.50;;;;;;;;;;5031455;28;20826;-70
2024/03/10 10:39:48;;;;;;;56.37;3.23;;;;;;;;;;5031434;28;20457;-70
2024/03/10 10:42:16;;;;;;;56.77;3.23;;;;;;;;;;5031772;28;20813;-71
2024/03/10 10:44:44;;;;;;;57.80;4.07;;;;;;;;;;5031521;28;20460;-70
2024/03/10 10:47:14;;;;;;;57.20;3.33;;;;;;;;;;5031734;28;20560;-71
2024/03/10 10:49:41;;;;;;;57.20;3.93;;;;;;;;;;5031944;28;20485;-71
2024/03/10 10:52:11;;;;;;;59.60;5.00;;;;;;;;;;5031951;28;20450;-71
2024/03/10 10:54:40;;;;;;;65.10;8.07;;;;;;;;;;5032126;28;20450;-71
2024/03/10 10:57:09;;;;;;;57.17;3.70;;;;;;;;;;5004528;28;20816;-70
2024/03/10 10:59:36;;;;;;;56.70;3.60;;;;;;;;;;5012274;28;20908;-70
2024/03/10 11:02:19;;;;;;;56.70;3.33;;;;;;;;;;5011748;28;20443;-71
2024/03/10 11:04:46;;;;;;;56.67;2.97;;;;;;;;;;5012297;28;20864;-71
2024/03/10 11:07:14;;;;;;;56.53;3.30;;;;;;;;;;5011856;28;20470;-71
2024/03/10 11:09:42;;;;;;;57.80;3.40;;;;;;;;;;5012017;28;20447;-70
2024/03/10 11:12:20;;;;;;;56.90;3.37;;;;;;;;;;5011553;28;20454;-70
2024/03/10 11:14:49;;;;;;;58.43;4.00;;;;;;;;;;5011471;28;20993;-70
2024/03/10 11:17:17;;;;;;;57.03;3.90;;;;;;;;;;5011215;28;20864;-71
2024/03/10 11:19:47;;;;;;;57.80;3.37;;;;;;;;;;5011489;28;20872;-71
2024/03/10 11:22:14;;;;;;;57.13;3.10;;;;;;;;;;5011581;28;20450;-71
2024/03/10 11:24:45;;;;;;;58.00;3.77;;;;;;;;;;5011482;28;20815;-70
2024/03/10 11:27:13;;;;;;;57.67;3.17;;;;;;;;;;5011259;28;20481;-70
2024/03/10 11:29:41;;;;;;;56.37;2.97;;;;;;;;;;5011261;28;20538;-70
2024/03/10 11:32:23;;;;;;;56.27;2.80;;;;;;;;;;5011778;28;20453;-70
2024/03/10 11:34:51;;;;;;;56.90;3.00;;;;;;;;;;5011194;28;20531;-70
2024/03/10 11:37:19;;;;;;;56.40;3.10;;;;;;;;;;5011125;28;20485;-70
2024/03/10 11:39:50;;;;;;;56.37;2.83;;;;;;;;;;5011289;28;20476;-70
2024/03/10 11:42:18;;;;;;;58.17;4.80;;;;;;;;;;5011298;28;20508;-70
2024/03/10 11:44:46;;;;;;;56.80;3.53;;;;;;;;;;5011189;28;20451;-71
2024/03/10 11:47:13;;;;;;;56.60;3.17;;;;;;;;;;5011143;28;20482;-71
2024/03/10 11:49:42;;;;;;;57.57;3.70;;;;;;;;;;5011177;28;21025;-71
2024/03/10 11:52:08;;;;;;;57.03;3.57;;;;;;;;;;5011312;28;20454;-71
2024/03/10 11:54:37;;;;;;;57.43;3.50;;;;;;;;;;5011010;28;20872;-70
2024/03/10 11:57:07;;;;;;;57.60;3.07;;;;;;;;;;5011057;28;20474;-71
2024/03/10 11:59:36;;;;;;;57.00;3.20;;;;;;;;;;5011198;28;20457;-70
2024/03/10 12:02:04;;;;;;;56.97;3.00;;;;;;;;;;5012950;28;20462;-71
2024/03/10 12:04:32;;;;;;;58.90;3.37;;;;;;;;;;5014838;28;20520;-70
2024/03/10 12:06:59;;;;;;;58.40;3.83;;;;;;;;;;5014397;28;20477;-70
2024/03/10 12:09:27;;;;;;;56.57;3.20;;;;;;;;;;5014802;28;20962;-72
2024/03/10 12:11:54;;;;;;;56.00;2.70;;;;;;;;;;5015386;28;20762;-71
2024/03/10 12:14:23;;;;;;;56.47;2.97;;;;;;;;;;5014829;28;20450;-70
2024/03/10 12:16:51;;;;;;;56.97;3.57;;;;;;;;;;5014308;28;20477;-71
2024/03/10 12:19:20;;;;;;;57.40;3.20;;;;;;;;;;5015106;28;20458;-71
2024/03/10 12:21:47;;;;;;;57.07;3.57;;;;;;;;;;5014408;28;20830;-71
2024/03/10 12:24:14;;;;;;;56.60;3.00;;;;;;;;;;5014749;28;20505;-71
2024/03/10 12:26:41;;;;;;;59.10;3.80;;;;;;;;;;5014064;28;20480;-71
2024/03/10 12:29:09;;;;;;;57.03;3.07;;;;;;;;;;5014529;28;20457;-71
2024/03/10 12:31:38;;;;;;;56.63;2.97;;;;;;;;;;5014193;28;21038;-71
2024/03/10 12:34:07;;;;;;;56.40;2.90;;;;;;;;;;5014181;28;20461;-71
2024/03/10 12:36:35;;;;;;;57.37;3.00;;;;;;;;;;5014003;28;20812;-72
2024/03/10 12:39:06;;;;;;;57.17;3.23;;;;;;;;;;5014416;28;20504;-71
2024/03/10 12:41:33;;;;;;;56.47;2.90;;;;;;;;;;5014280;28;20478;-70
2024/03/10 12:44:01;;;;;;;56.67;3.10;;;;;;;;;;5024167;28;20937;-71
2024/03/10 12:46:28;;;;;;;57.50;2.90;;;;;;;;;;5033650;28;20503;-71
2024/03/10 12:48:57;;;;;;;56.60;3.30;;;;;;;;;;5033727;28;20965;-71
2024/03/10 12:51:24;;;;;;;57.70;3.60;;;;;;;;;;5034042;28;20479;-71
2024/03/10 12:53:52;;;;;;;57.30;3.00;;;;;;;;;;5033762;28;20446;-71
2024/03/10 12:56:19;;;;;;;57.67;3.20;;;;;;;;;;5033526;28;20477;-70
2024/03/10 12:58:46;;;;;;;57.60;3.03;;;;;;;;;;5033542;28;20454;-69
2024/03/10 13:01:16;;;;;;;60.63;3.30;;;;;;;;;;5033495;28;20454;-70
2024/03/10 13:03:44;;;;;;;57.90;3.67;;;;;;;;;;5033895;28;20493;-70
2024/03/10 13:06:14;;;;;;;58.17;3.60;;;;;;;;;;5033150;28;20933;-71
2024/03/10 13:08:41;;;;;;;57.10;3.27;;;;;;;;;;5033529;28;20454;-71
2024/03/10 13:11:09;;;;;;;55.87;2.77;;;;;;;;;;5033355;28;20441;-71
2024/03/10 13:13:36;;;;;;;56.57;3.20;;;;;;;;;;5032812;28;21014;-70
2024/03/10 13:16:03;;;;;;;57.80;3.07;;;;;;;;;;5032833;28;20444;-70
2024/03/10 13:18:30;;;;;;;57.23;3.30;;;;;;;;;;5033418;28;20458;-70
2024/03/10 13:20:57;;;;;;;57.00;3.50;;;;;;;;;;5033108;28;20452;-70
2024/03/10 13:23:26;;;;;;;56.70;3.13;;;;;;;;;;5032946;28;20481;-71
2024/03/10 13:25:53;;;;;;;57.03;3.30;;;;;;;;;;5032897;28;20599;-71
2024/03/10 13:28:22;;;;;;;57.03;3.27;;;;;;;;;;5032906;28;20974;-71
2024/03/10 13:30:49;;;;;;;57.27;3.20;;;;;;;;;;5033081;28;20939;-71
2024/03/10 13:33:16;;;;;;;56.87;3.20;;;;;;;;;;5032921;28;20930;-71
2024/03/10 13:35:43;;;;;;;57.50;3.60;;;;;;;;;;5033361;28;20493;-71
2024/03/10 13:38:11;;;;;;;56.97;3.53;;;;;;;;;;5032651;28;21019;-72
2024/03/10 13:40:39;;;;;;;57.97;3.80;;;;;;;;;;5032997;28;21064;-71
2024/03/10 13:43:06;;;;;;;57.80;3.63;;;;;;;;;;5032624;28;20460;-71
2024/03/10 13:45:33;;;;;;;56.97;3.43;;;;;;;;;;5032635;28;20449;-71
2024/03/10 13:48:01;;;;;;;57.43;3.43;;;;;;;;;;5032761;28;20855;-71
2024/03/10 13:50:28;;;;;;;57.27;3.13;;;;;;;;;;5032824;28;20520;-71
2024/03/10 13:52:55;;;;;;;64.10;4.00;;;;;;;;;;5032794;28;20453;-71
2024/03/10 13:55:22;;;;;;;57.80;2.87;;;;;;;;;;5032660;28;20541;-71
2024/03/10 13:57:50;;;;;;;57.67;3.77;;;;;;;;;;5032266;28;20469;-71
2024/03/10 14:00:19;;;;;;;57.47;3.50;;;;;;;;;;5032981;28;20784;-71
2024/03/10 14:02:48;;;;;;;56.63;3.47;;;;;;;;;;5032932;28;20464;-71
2024/03/10 14:05:15;;;;;;;58.07;4.10;;;;;;;;;;5032589;28;20490;-71
2024/03/10 14:07:42;;;;;;;57.30;3.90;;;;;;;;;;5032277;28;20477;-71
2024/03/10 14:10:10;;;;;;;57.17;3.97;;;;;;;;;;5032168;28;20461;-71
2024/03/10 14:12:38;;;;;;;58.13;4.60;;;;;;;;;;5032656;28;20487;-71
2024/03/10 14:15:09;;;;;;;58.40;4.63;;;;;;;;;;5030177;28;20437;-71
2024/03/10 14:17:37;;;;;;;59.17;4.73;;;;;;;;;;5012431;28;20517;-71
2024/03/10 14:20:05;;;;;;;58.40;4.60;;;;;;;;;;5012414;28;20477;-71
2024/03/10 14:22:33;;;;;;;58.80;4.50;;;;;;;;;;5012325;28;20455;-70
2024/03/10 14:25:01;;;;;;;58.10;4.40;;;;;;;;;;5011695;28;20479;-71
2024/03/10 14:27:28;;;;;;;58.50;4.70;;;;;;;;;;5012524;28;20471;-70
2024/03/10 14:29:56;;;;;;;57.80;4.20;;;;;;;;;;5012170;28;20454;-71
2024/03/10 14:32:25;;;;;;;58.50;4.30;;;;;;;;;;5012350;28;20454;-71
2024/03/10 14:34:53;;;;;;;57.90;4.30;;;;;;;;;;5012222;28;20466;-71
2024/03/10 14:37:21;;;;;;;58.67;4.63;;;;;;;;;;5011671;28;20982;-70
2024/03/10 14:39:48;;;;;;;59.27;4.60;;;;;;;;;;5012319;28;20542;-71
2024/03/10 14:42:15;;;;;;;58.57;4.23;;;;;;;;;;5011979;28;20446;-71
2024/03/10 14:44:42;;;;;;;58.47;4.90;;;;;;;;;;5011943;28;20513;-70
2024/03/10 14:47:09;;;;;;;58.63;4.90;;;;;;;;;;5011794;28;20470;-70
2024/03/10 14:49:39;;;;;;;60.30;5.33;;;;;;;;;;5011931;28;20439;-71
2024/03/10 14:52:07;;;;;;;58.87;4.47;;;;;;;;;;5011838;28;20457;-72
2024/03/10 14:54:34;;;;;;;60.10;6.17;;;;;;;;;;5012216;28;20458;-72
2024/03/10 14:57:01;;;;;;;59.73;4.80;;;;;;;;;;5011808;28;20473;-71
2024/03/10 14:59:28;;;;;;;60.80;5.00;;;;;;;;;;5011670;28;20936;-70